createdAt,value
2023-04-09T00:00:16.805Z,11.00
2023-04-09T00:02:43.440Z,10.75
2023-04-09T00:05:10.365Z,11.00
2023-04-09T00:07:36.906Z,10.30
2023-04-09T00:10:03.567Z,10.00
2023-04-09T00:12:30.576Z,10.20
2023-04-09T00:14:57.818Z,10.13
2023-04-09T00:17:24.611Z,10.38
2023-04-09T00:19:51.407Z,10.10
2023-04-09T00:22:18.069Z,9.70
2023-04-09T00:24:44.702Z,9.93
2023-04-09T00:27:11.336Z,9.93
2023-04-09T00:29:38.019Z,9.23
2023-04-09T00:32:04.831Z,9.18
2023-04-09T00:34:31.480Z,9.03
2023-04-09T00:36:58.097Z,9.48
2023-04-09T00:39:24.680Z,8.90
2023-04-09T00:41:57.579Z,10.15
2023-04-09T00:44:24.111Z,10.02
2023-04-09T00:46:50.799Z,9.73
2023-04-09T00:49:17.668Z,8.93
2023-04-09T00:51:45.530Z,8.50
2023-04-09T00:54:12.634Z,8.68
2023-04-09T00:56:39.240Z,9.60
2023-04-09T00:59:05.877Z,8.23
2023-04-09T01:01:32.746Z,8.95
2023-04-09T01:03:59.580Z,9.48
2023-04-09T01:06:51.262Z,8.73
2023-04-09T01:09:20.832Z,9.63
2023-04-09T01:12:15.243Z,9.67
2023-04-09T01:14:41.813Z,9.13
2023-04-09T01:17:27.607Z,9.02
2023-04-09T01:20:09.329Z,8.52
2023-04-09T01:22:56.288Z,9.93
2023-04-09T01:25:37.588Z,9.23
2023-04-09T01:28:19.216Z,8.73
2023-04-09T01:30:49.944Z,9.40
2023-04-09T01:33:19.075Z,10.15
2023-04-09T01:35:50.583Z,9.23
2023-04-09T01:38:19.817Z,9.13
2023-04-09T01:40:46.947Z,10.27
2023-04-09T01:43:14.127Z,9.85
2023-04-09T01:45:41.835Z,9.80
2023-04-09T01:48:09.424Z,9.80
2023-04-09T01:50:36.408Z,10.33
2023-04-09T01:53:03.864Z,10.30
2023-04-09T01:55:30.437Z,9.65
2023-04-09T01:57:57.086Z,10.75
2023-04-09T02:00:27.111Z,10.98
2023-04-09T02:03:13.981Z,10.03
2023-04-09T02:05:46.635Z,10.93
2023-04-09T02:08:19.273Z,11.00
2023-04-09T02:10:55.594Z,10.50
2023-04-09T02:13:23.577Z,10.80
2023-04-09T02:15:51.352Z,10.23
2023-04-09T02:18:31.223Z,10.10
2023-04-09T02:20:59.210Z,9.85
2023-04-09T02:23:27.372Z,9.85
2023-04-09T02:25:54.470Z,9.95
2023-04-09T02:28:21.083Z,9.20
2023-04-09T02:30:47.605Z,10.35
2023-04-09T02:33:14.307Z,9.90
2023-04-09T02:35:40.919Z,9.88
2023-04-09T02:38:13.820Z,10.15
2023-04-09T02:40:41.576Z,10.23
2023-04-09T02:43:09.292Z,9.35
2023-04-09T02:45:35.959Z,9.15
2023-04-09T02:50:34.727Z,10.27
2023-04-09T02:53:01.416Z,9.40
2023-04-09T02:55:28.040Z,9.68
2023-04-09T02:57:54.691Z,9.85
2023-04-09T03:00:21.394Z,9.80
2023-04-09T03:02:48.076Z,10.43
2023-04-09T03:05:14.799Z,8.67
2023-04-09T03:07:41.442Z,8.90
2023-04-09T03:10:08.340Z,9.45
2023-04-09T03:12:34.887Z,10.27
2023-04-09T03:15:01.482Z,9.50
2023-04-09T03:17:28.164Z,9.17
2023-04-09T03:19:54.785Z,9.05
2023-04-09T03:22:21.369Z,9.27
2023-04-09T03:24:48.200Z,9.63
2023-04-09T03:27:15.078Z,9.77
2023-04-09T03:29:41.602Z,9.93
2023-04-09T03:32:08.095Z,9.57
2023-04-09T03:34:34.638Z,9.18
2023-04-09T03:37:01.236Z,10.05
2023-04-09T03:39:30.990Z,10.75
2023-04-09T03:41:59.060Z,10.27
2023-04-09T03:44:26.020Z,9.65
2023-04-09T03:46:52.970Z,10.60
2023-04-09T03:49:19.716Z,11.32
2023-04-09T03:51:46.363Z,11.25
2023-04-09T03:54:13.235Z,10.37
2023-04-09T03:56:39.776Z,10.52
2023-04-09T03:59:06.727Z,9.55
2023-04-09T04:01:33.386Z,10.38
2023-04-09T04:04:00.270Z,9.88
2023-04-09T04:06:27.461Z,9.63
2023-04-09T04:08:54.410Z,10.32
2023-04-09T04:11:21.134Z,10.10
2023-04-09T04:13:47.781Z,9.85
2023-04-09T04:16:14.393Z,9.48
2023-04-09T04:18:41.062Z,9.07
2023-04-09T04:21:16.097Z,9.05
2023-04-09T04:23:43.182Z,9.15
2023-04-09T04:26:10.980Z,9.38
2023-04-09T04:28:38.481Z,8.90
2023-04-09T04:31:12.227Z,9.23
2023-04-09T04:33:41.356Z,8.73
2023-04-09T04:36:09.737Z,8.55
2023-04-09T04:38:36.681Z,8.90
2023-04-09T04:41:03.964Z,8.55
2023-04-09T04:43:30.797Z,8.93
2023-04-09T04:45:57.439Z,10.80
2023-04-09T04:48:24.812Z,9.38
2023-04-09T04:50:58.726Z,9.75
2023-04-09T04:53:25.676Z,8.75
2023-04-09T04:55:52.357Z,9.37
2023-04-09T04:58:19.239Z,9.18
2023-04-09T05:00:46.415Z,9.13
2023-04-09T05:03:13.689Z,9.88
2023-04-09T05:05:40.499Z,10.82
2023-04-09T05:08:07.106Z,10.80
2023-04-09T05:10:36.033Z,10.18
2023-04-09T05:13:02.671Z,9.95
2023-04-09T05:15:29.985Z,10.95
2023-04-09T05:17:56.726Z,9.57
2023-04-09T05:20:23.412Z,10.87
2023-04-09T05:22:50.037Z,10.02
2023-04-09T05:25:16.764Z,16.00
2023-04-09T05:27:43.411Z,18.55
2023-04-09T05:30:10.525Z,16.42
2023-04-09T05:32:37.438Z,16.83
2023-04-09T05:35:04.426Z,14.00
2023-04-09T05:37:31.038Z,14.43
2023-04-09T05:39:57.786Z,13.07
2023-04-09T05:42:24.320Z,13.45
2023-04-09T05:44:51.159Z,15.07
2023-04-09T05:47:17.829Z,14.63
2023-04-09T05:49:44.511Z,14.23
2023-04-09T05:52:11.129Z,16.15
2023-04-09T05:54:38.001Z,16.75
2023-04-09T05:57:04.737Z,17.60
2023-04-09T05:59:31.539Z,14.07
2023-04-09T06:01:58.186Z,13.02
2023-04-09T06:04:25.046Z,13.23
2023-04-09T06:06:52.002Z,12.77
2023-04-09T06:09:18.575Z,13.40
2023-04-09T06:11:45.219Z,13.07
2023-04-09T06:14:16.479Z,20.70
2023-04-09T06:16:43.171Z,24.60
2023-04-09T06:19:09.743Z,32.70
2023-04-09T06:21:36.415Z,38.30
2023-04-09T06:24:03.011Z,28.45
2023-04-09T06:26:29.585Z,15.18
2023-04-09T06:28:56.119Z,12.88
2023-04-09T06:31:22.816Z,12.10
2023-04-09T06:33:49.500Z,14.90
2023-04-09T06:36:16.148Z,14.43
2023-04-09T06:38:42.731Z,14.77
2023-04-09T06:41:09.727Z,12.73
2023-04-09T06:43:37.583Z,12.68
2023-04-09T06:46:04.238Z,11.93
2023-04-09T06:48:31.454Z,11.45
2023-04-09T06:50:58.025Z,12.80
2023-04-09T06:53:24.608Z,13.20
2023-04-09T06:55:51.464Z,11.68
2023-04-09T06:58:18.057Z,12.97
2023-04-09T07:00:44.622Z,13.30
2023-04-09T07:03:11.508Z,13.40
2023-04-09T07:05:38.200Z,13.73
2023-04-09T07:08:05.182Z,13.32
2023-04-09T07:10:31.885Z,13.83
2023-04-09T07:12:58.553Z,13.18
2023-04-09T07:15:25.154Z,12.63
2023-04-09T07:17:51.784Z,12.98
2023-04-09T07:20:18.534Z,12.60
2023-04-09T07:22:45.102Z,12.83
2023-04-09T07:25:12.005Z,13.15
2023-04-09T07:27:38.584Z,13.32
2023-04-09T07:30:05.837Z,12.85
2023-04-09T07:32:32.597Z,11.98
2023-04-09T07:34:59.704Z,11.77
2023-04-09T07:37:27.176Z,12.13
2023-04-09T07:39:53.799Z,12.35
2023-04-09T07:42:20.528Z,11.55
2023-04-09T07:44:47.710Z,11.95
2023-04-09T07:47:14.695Z,12.00
2023-04-09T07:49:41.558Z,11.60
2023-04-09T07:52:08.412Z,13.02
2023-04-09T07:54:35.671Z,12.63
2023-04-09T07:57:02.842Z,11.85
2023-04-09T07:59:30.898Z,12.10
2023-04-09T08:01:57.745Z,12.40
2023-04-09T08:04:24.755Z,11.32
2023-04-09T08:06:51.496Z,11.70
2023-04-09T08:09:18.663Z,11.63
2023-04-09T08:11:48.757Z,10.90
2023-04-09T08:14:16.673Z,12.10
2023-04-09T08:16:45.327Z,10.68
2023-04-09T08:19:12.631Z,13.10
2023-04-09T08:21:43.205Z,12.57
2023-04-09T08:24:11.644Z,11.43
2023-04-09T08:26:38.921Z,12.18
2023-04-09T08:29:05.641Z,12.70
2023-04-09T08:31:32.391Z,12.98
2023-04-09T08:33:59.047Z,13.02
2023-04-09T08:36:26.423Z,11.43
2023-04-09T08:38:56.286Z,12.95
2023-04-09T08:41:24.955Z,11.70
2023-04-09T08:46:23.514Z,13.30
2023-04-09T08:48:52.081Z,12.70
2023-04-09T08:51:21.884Z,12.90
2023-04-09T08:53:53.558Z,13.68
2023-04-09T08:56:22.058Z,12.38
2023-04-09T08:58:48.718Z,12.50
2023-04-09T09:01:31.851Z,13.07
2023-04-09T09:04:09.268Z,12.02
2023-04-09T09:06:38.424Z,12.15
2023-04-09T09:09:18.952Z,12.82
2023-04-09T09:11:48.524Z,12.40
2023-04-09T09:14:19.533Z,12.33
2023-04-09T09:17:04.807Z,12.60
2023-04-09T09:19:36.752Z,12.93
2023-04-09T09:22:12.731Z,12.75
2023-04-09T09:24:49.804Z,12.13
2023-04-09T09:27:37.211Z,12.07
2023-04-09T09:30:05.832Z,11.95
2023-04-09T09:32:33.513Z,13.13
2023-04-09T09:35:03.261Z,12.50
2023-04-09T09:37:31.278Z,13.10
2023-04-09T09:39:58.980Z,13.17
2023-04-09T09:42:27.180Z,11.93
2023-04-09T09:44:55.363Z,11.27
2023-04-09T09:47:23.624Z,11.73
2023-04-09T09:49:51.407Z,10.93
2023-04-09T09:52:24.920Z,12.23
2023-04-09T09:54:53.430Z,11.18
2023-04-09T09:57:23.789Z,11.85
2023-04-09T10:00:02.422Z,11.10
2023-04-09T10:02:37.376Z,10.25
2023-04-09T10:05:06.559Z,9.67
2023-04-09T10:07:33.210Z,10.60
2023-04-09T10:10:01.731Z,9.65
2023-04-09T10:12:28.761Z,12.55
2023-04-09T10:14:56.684Z,9.75
2023-04-09T10:17:23.293Z,10.00
2023-04-09T10:19:59.462Z,10.23
2023-04-09T10:22:29.657Z,10.52
2023-04-09T10:24:58.194Z,10.23
2023-04-09T10:27:27.312Z,10.43
2023-04-09T10:29:53.989Z,10.80
2023-04-09T10:32:26.870Z,9.60
2023-04-09T10:34:57.602Z,10.13
2023-04-09T10:37:28.208Z,9.52
2023-04-09T10:39:54.924Z,11.90
2023-04-09T10:42:41.223Z,11.50
2023-04-09T10:45:10.092Z,9.50
2023-04-09T10:47:39.230Z,8.50
2023-04-09T10:50:17.080Z,8.93
2023-04-09T10:52:44.624Z,10.68
2023-04-09T10:55:31.415Z,9.33
2023-04-09T10:57:58.646Z,10.18
2023-04-09T11:00:25.557Z,10.20
2023-04-09T11:03:08.045Z,10.75
2023-04-09T11:05:39.439Z,10.73
2023-04-09T11:08:14.346Z,7.60
2023-04-09T11:10:44.198Z,8.75
2023-04-09T11:13:18.581Z,7.47
2023-04-09T11:15:46.160Z,7.15
2023-04-09T11:18:20.845Z,6.75
2023-04-09T11:20:47.689Z,6.77
2023-04-09T11:23:17.911Z,7.38
2023-04-09T11:25:49.399Z,7.88
2023-04-09T11:28:16.110Z,8.80
2023-04-09T11:30:43.848Z,8.88
2023-04-09T11:33:10.751Z,9.00
2023-04-09T11:35:37.564Z,8.13
2023-04-09T11:38:11.927Z,7.63
2023-04-09T11:40:48.098Z,7.80
2023-04-09T11:43:18.973Z,8.45
2023-04-09T11:45:48.668Z,7.80
2023-04-09T11:48:18.521Z,9.00
2023-04-09T11:50:45.910Z,9.40
2023-04-09T11:53:22.910Z,8.98
2023-04-09T11:55:53.740Z,9.93
2023-04-09T11:58:26.453Z,9.90
2023-04-09T12:00:55.150Z,9.35
2023-04-09T12:03:29.926Z,9.88
2023-04-09T12:05:56.828Z,10.05
2023-04-09T12:08:25.020Z,9.48
2023-04-09T12:10:53.817Z,10.13
2023-04-09T12:13:21.348Z,9.88
2023-04-09T12:15:49.962Z,9.95
2023-04-09T12:18:16.792Z,10.77
2023-04-09T12:20:44.649Z,10.60
2023-04-09T12:23:12.782Z,10.47
2023-04-09T12:25:41.537Z,11.23
2023-04-09T12:28:09.786Z,10.55
2023-04-09T12:30:36.642Z,11.10
2023-04-09T12:33:04.538Z,10.70
2023-04-09T12:35:32.035Z,10.07
2023-04-09T12:37:59.570Z,10.07
2023-04-09T12:40:26.772Z,9.80
2023-04-09T12:42:54.156Z,9.65
2023-04-09T12:45:21.257Z,9.63
2023-04-09T12:47:48.392Z,9.17
2023-04-09T12:50:16.387Z,8.23
2023-04-09T12:52:43.578Z,8.43
2023-04-09T12:55:10.827Z,8.73
2023-04-09T12:57:38.928Z,8.18
2023-04-09T13:00:08.510Z,7.87
2023-04-09T13:02:36.091Z,7.55
2023-04-09T13:05:05.668Z,7.60
2023-04-09T13:07:32.252Z,7.65
2023-04-09T13:09:58.963Z,7.75
2023-04-09T13:12:25.967Z,7.27
2023-04-09T13:14:54.748Z,8.05
2023-04-09T13:17:22.108Z,8.05
2023-04-09T13:19:49.997Z,7.45
2023-04-09T13:22:16.950Z,6.75
2023-04-09T13:24:43.621Z,7.43
2023-04-09T13:27:11.431Z,7.10
2023-04-09T13:29:38.213Z,7.85
2023-04-09T13:32:07.741Z,7.43
2023-04-09T13:34:35.603Z,7.70
2023-04-09T13:37:03.617Z,8.23
2023-04-09T13:39:30.592Z,7.90
2023-04-09T13:41:57.369Z,8.30
2023-04-09T13:44:25.390Z,8.63
2023-04-09T13:46:54.196Z,7.55
2023-04-09T13:49:21.252Z,7.77
2023-04-09T13:51:49.416Z,8.27
2023-04-09T13:54:16.395Z,8.98
2023-04-09T13:56:44.638Z,8.55
2023-04-09T13:59:11.706Z,8.95
2023-04-09T14:01:38.401Z,8.60
2023-04-09T14:04:05.251Z,8.77
2023-04-09T14:06:32.132Z,9.60
2023-04-09T14:08:58.726Z,9.05
2023-04-09T14:11:25.516Z,9.40
2023-04-09T14:13:52.398Z,9.53
2023-04-09T14:16:19.510Z,9.55
2023-04-09T14:18:46.457Z,9.88
2023-04-09T14:21:13.110Z,9.75
2023-04-09T14:23:40.183Z,9.25
2023-04-09T14:26:07.141Z,9.67
2023-04-09T14:28:33.790Z,8.15
2023-04-09T14:31:00.748Z,8.75
2023-04-09T14:33:27.598Z,9.63
2023-04-09T14:35:54.375Z,9.30
2023-04-09T14:38:21.065Z,9.73
2023-04-09T14:40:47.657Z,9.63
2023-04-09T14:43:14.273Z,9.32
2023-04-09T14:45:41.224Z,8.60
2023-04-09T14:48:08.680Z,8.85
2023-04-09T14:50:36.922Z,8.43
2023-04-09T14:53:04.280Z,9.40
2023-04-09T14:55:31.049Z,9.25
2023-04-09T14:57:59.229Z,7.60
2023-04-09T15:00:25.898Z,8.27
2023-04-09T15:02:52.828Z,8.17
2023-04-09T15:05:19.626Z,8.98
2023-04-09T15:07:46.368Z,8.23
2023-04-09T15:10:13.078Z,8.75
2023-04-09T15:12:39.844Z,8.07
2023-04-09T15:15:08.391Z,7.73
2023-04-09T15:17:35.220Z,8.50
2023-04-09T15:20:01.996Z,7.53
2023-04-09T15:22:28.587Z,8.25
2023-04-09T15:24:55.198Z,7.88
2023-04-09T15:27:21.791Z,7.40
2023-04-09T15:29:48.423Z,7.80
2023-04-09T15:32:15.050Z,9.07
2023-04-09T15:34:41.682Z,7.90
2023-04-09T15:37:08.357Z,8.18
2023-04-09T15:39:35.273Z,8.13
2023-04-09T15:42:02.253Z,7.72
2023-04-09T15:44:29.262Z,8.07
2023-04-09T15:46:56.220Z,7.07
2023-04-09T15:49:23.572Z,8.23
2023-04-09T15:51:50.254Z,7.80
2023-04-09T15:54:16.918Z,7.45
2023-04-09T15:56:43.561Z,7.47
2023-04-09T15:59:10.202Z,6.93
2023-04-09T16:01:36.946Z,7.97
2023-04-09T16:04:04.934Z,7.40
2023-04-09T16:06:31.977Z,7.80
2023-04-09T16:08:58.752Z,7.07
2023-04-09T16:11:26.134Z,7.13
2023-04-09T16:13:52.871Z,7.25
2023-04-09T16:16:19.720Z,7.73
2023-04-09T16:18:46.321Z,7.50
2023-04-09T16:21:12.998Z,7.32
2023-04-09T16:23:39.961Z,7.28
2023-04-09T16:26:07.039Z,7.80
2023-04-09T16:28:33.867Z,7.80
2023-04-09T16:31:00.575Z,7.07
2023-04-09T16:33:27.297Z,7.63
2023-04-09T16:35:53.931Z,7.15
2023-04-09T16:38:20.589Z,11.18
2023-04-09T16:40:47.254Z,7.63
2023-04-09T16:43:13.883Z,6.60
2023-04-09T16:45:40.554Z,6.85
2023-04-09T16:48:12.344Z,6.65
2023-04-09T16:50:40.490Z,7.03
2023-04-09T16:53:07.824Z,6.70
2023-04-09T16:55:35.283Z,6.85
2023-04-09T16:58:01.955Z,7.28
2023-04-09T17:00:28.688Z,7.35
2023-04-09T17:02:56.841Z,9.07
2023-04-09T17:05:23.778Z,8.77
2023-04-09T17:07:50.605Z,8.52
2023-04-09T17:10:18.696Z,7.63
2023-04-09T17:12:45.926Z,5.95
2023-04-09T17:15:12.514Z,6.82
2023-04-09T17:17:39.256Z,6.53
2023-04-09T17:20:06.617Z,6.18
2023-04-09T17:22:35.177Z,6.70
2023-04-09T17:25:02.622Z,6.35
2023-04-09T17:27:29.338Z,6.35
2023-04-09T17:29:56.167Z,6.07
2023-04-09T17:32:22.820Z,6.35
2023-04-09T17:34:49.630Z,7.25
2023-04-09T17:37:16.457Z,7.43
2023-04-09T17:39:43.091Z,7.97
2023-04-09T17:42:11.898Z,6.50
2023-04-09T17:44:38.796Z,6.70
2023-04-09T17:47:07.570Z,6.45
2023-04-09T17:49:34.373Z,6.80
2023-04-09T17:52:01.342Z,6.60
2023-04-09T17:54:35.427Z,6.50
2023-04-09T17:57:04.253Z,7.13
2023-04-09T17:59:31.326Z,7.25
2023-04-09T18:01:58.118Z,7.50
2023-04-09T18:04:25.297Z,6.82
2023-04-09T18:06:52.659Z,10.13
2023-04-09T18:09:19.419Z,10.50
2023-04-09T18:11:46.528Z,9.15
2023-04-09T18:14:13.261Z,8.32
2023-04-09T18:16:40.199Z,8.73
2023-04-09T18:19:07.440Z,8.30
2023-04-09T18:21:36.585Z,8.15
2023-04-09T18:24:03.850Z,7.55
2023-04-09T18:26:30.927Z,7.72
2023-04-09T18:29:00.165Z,8.30
2023-04-09T18:31:27.614Z,9.93
2023-04-09T18:33:54.267Z,10.57
2023-04-09T18:36:20.784Z,9.63
2023-04-09T18:38:47.384Z,9.88
2023-04-09T18:41:21.092Z,9.00
2023-04-09T18:43:48.451Z,9.33
2023-04-09T18:46:15.091Z,8.88
2023-04-09T18:48:43.429Z,9.57
2023-04-09T18:51:10.797Z,9.43
2023-04-09T18:53:37.909Z,9.85
2023-04-09T18:56:04.619Z,10.07
2023-04-09T18:58:31.416Z,10.65
2023-04-09T19:00:58.338Z,10.15
2023-04-09T19:03:25.799Z,10.48
2023-04-09T19:05:53.740Z,10.20
2023-04-09T19:08:20.315Z,10.53
2023-04-09T19:10:47.883Z,10.90
2023-04-09T19:13:14.554Z,10.80
2023-04-09T19:15:41.126Z,10.40
2023-04-09T19:18:07.871Z,11.65
2023-04-09T19:20:34.399Z,10.70
2023-04-09T19:23:01.163Z,12.45
2023-04-09T19:25:28.869Z,11.95
2023-04-09T19:27:55.447Z,11.15
2023-04-09T19:30:22.105Z,12.23
2023-04-09T19:32:48.795Z,11.73
2023-04-09T19:35:15.627Z,11.43
2023-04-09T19:37:42.733Z,11.63
2023-04-09T19:40:09.850Z,10.90
2023-04-09T19:42:36.646Z,11.63
2023-04-09T19:45:03.358Z,11.90
2023-04-09T19:47:30.007Z,11.73
2023-04-09T19:49:56.667Z,13.98
2023-04-09T19:52:23.255Z,18.63
2023-04-09T19:54:55.191Z,17.88
2023-04-09T19:57:22.643Z,17.93
2023-04-09T19:59:49.953Z,19.35
2023-04-09T20:02:16.838Z,18.00
2023-04-09T20:04:43.600Z,17.65
2023-04-09T20:07:10.163Z,19.65
2023-04-09T20:09:41.432Z,19.07
2023-04-09T20:12:09.647Z,19.65
2023-04-09T20:14:38.329Z,19.88
2023-04-09T20:17:06.219Z,20.88
2023-04-09T20:19:32.819Z,17.65
2023-04-09T20:22:00.454Z,16.67
2023-04-09T20:24:28.260Z,15.63
2023-04-09T20:26:56.413Z,14.00
2023-04-09T20:29:23.000Z,14.90
2023-04-09T20:31:49.607Z,13.55
2023-04-09T20:34:16.282Z,14.83
2023-04-09T20:36:44.063Z,13.45
2023-04-09T20:39:11.764Z,13.20
2023-04-09T20:41:38.508Z,13.50
2023-04-09T20:44:05.060Z,12.50
2023-04-09T20:46:31.843Z,13.07
2023-04-09T20:48:58.326Z,12.20
2023-04-09T20:51:24.867Z,12.73
2023-04-09T20:53:51.386Z,14.23
2023-04-09T20:56:18.597Z,14.32
2023-04-09T20:58:45.146Z,14.83
2023-04-09T21:01:11.748Z,15.70
2023-04-09T21:03:40.234Z,14.73
2023-04-09T21:06:07.313Z,13.85
2023-04-09T21:08:34.232Z,13.07
2023-04-09T21:11:00.918Z,11.47
2023-04-09T21:13:27.544Z,11.52
2023-04-09T21:15:54.119Z,11.43
2023-04-09T21:18:20.687Z,11.70
2023-04-09T21:20:47.719Z,11.85
2023-04-09T21:23:14.417Z,11.33
2023-04-09T21:25:41.590Z,11.38
2023-04-09T21:28:08.437Z,12.40
2023-04-09T21:30:35.773Z,11.38
2023-04-09T21:33:03.797Z,12.32
2023-04-09T21:35:30.701Z,11.30
2023-04-09T21:37:57.499Z,12.30
2023-04-09T21:40:24.532Z,11.57
2023-04-09T21:42:51.606Z,11.85
2023-04-09T21:45:18.163Z,11.60
2023-04-09T21:47:45.568Z,13.43
2023-04-09T21:50:12.228Z,12.38
2023-04-09T21:52:38.780Z,13.30
2023-04-09T21:55:05.867Z,13.27
2023-04-09T21:57:32.530Z,13.55
2023-04-09T21:59:59.158Z,13.03
2023-04-09T22:02:28.147Z,16.10
2023-04-09T22:04:54.906Z,20.73
2023-04-09T22:07:21.474Z,19.85
2023-04-09T22:09:47.994Z,22.55
2023-04-09T22:12:14.515Z,23.43
2023-04-09T22:14:41.961Z,22.85
2023-04-09T22:17:08.957Z,22.65
2023-04-09T22:19:35.548Z,20.00
2023-04-09T22:22:02.282Z,17.15
2023-04-09T22:24:30.424Z,14.53
2023-04-09T22:26:59.235Z,14.70
2023-04-09T22:29:29.341Z,11.88
2023-04-09T22:31:56.651Z,11.07
2023-04-09T22:34:23.195Z,11.43
2023-04-09T22:36:49.737Z,11.80
2023-04-09T22:39:16.472Z,10.43
2023-04-09T22:41:43.160Z,12.00
2023-04-09T22:44:09.772Z,11.27
2023-04-09T22:46:36.788Z,10.88
2023-04-09T22:49:05.572Z,10.40
2023-04-09T22:51:34.953Z,11.15
2023-04-09T22:54:02.286Z,11.65
2023-04-09T22:56:30.240Z,11.93
2023-04-09T22:58:56.785Z,12.32
2023-04-09T23:01:23.540Z,11.13
2023-04-09T23:03:50.638Z,11.73
2023-04-09T23:06:17.393Z,11.00
2023-04-09T23:08:44.622Z,11.35
2023-04-09T23:11:11.496Z,10.27
2023-04-09T23:13:38.896Z,10.13
2023-04-09T23:16:07.600Z,10.57
2023-04-09T23:18:35.853Z,10.40
2023-04-09T23:21:09.898Z,11.52
2023-04-09T23:23:37.626Z,9.75
2023-04-09T23:26:04.617Z,10.67
2023-04-09T23:28:31.660Z,10.80
2023-04-09T23:30:58.278Z,12.27
2023-04-09T23:33:24.950Z,12.50
2023-04-09T23:35:51.704Z,11.65
2023-04-09T23:38:18.411Z,11.00
2023-04-09T23:40:47.313Z,11.18
2023-04-09T23:43:14.134Z,10.90
2023-04-09T23:45:40.730Z,10.40
2023-04-09T23:48:08.966Z,10.73
2023-04-09T23:50:39.173Z,10.40
2023-04-09T23:53:05.689Z,9.90
2023-04-09T23:55:33.568Z,10.20
2023-04-09T23:58:00.124Z,10.35
